createdAt,value
2023-05-14T00:01:17.930Z,10.44
2023-05-14T00:03:44.746Z,10.20
2023-05-14T00:06:11.523Z,10.19
2023-05-14T00:08:38.172Z,10.16
2023-05-14T00:11:04.992Z,10.44
2023-05-14T00:13:31.707Z,10.42
2023-05-14T00:15:58.462Z,10.39
2023-05-14T00:18:25.222Z,10.30
2023-05-14T00:20:54.792Z,10.27
2023-05-14T00:23:22.753Z,10.37
2023-05-14T00:25:50.604Z,10.55
2023-05-14T00:28:17.628Z,10.59
2023-05-14T00:30:44.613Z,10.56
2023-05-14T00:33:11.287Z,10.47
2023-05-14T00:35:38.051Z,10.25
2023-05-14T00:38:04.759Z,10.42
2023-05-14T00:40:31.721Z,10.43
2023-05-14T00:42:58.356Z,10.48
2023-05-14T00:45:25.753Z,10.39
2023-05-14T00:47:53.733Z,10.31
2023-05-14T00:50:21.438Z,10.26
2023-05-14T00:52:48.868Z,10.29
2023-05-14T00:55:16.829Z,10.25
2023-05-14T00:57:43.930Z,10.29
2023-05-14T01:00:11.118Z,10.20
2023-05-14T01:02:38.188Z,9.99
2023-05-14T01:05:05.809Z,10.18
2023-05-14T01:08:18.383Z,10.27
2023-05-14T01:11:06.561Z,10.31
2023-05-14T01:14:10.840Z,10.13
2023-05-14T01:16:39.612Z,9.99
2023-05-14T01:19:17.469Z,10.12
2023-05-14T01:21:44.160Z,10.03
2023-05-14T01:24:10.830Z,10.10
2023-05-14T01:26:37.631Z,10.04
2023-05-14T01:29:19.854Z,10.13
2023-05-14T01:31:49.159Z,10.15
2023-05-14T01:34:20.279Z,10.13
2023-05-14T01:36:48.708Z,10.12
2023-05-14T01:39:16.269Z,10.11
2023-05-14T01:41:44.321Z,10.19
2023-05-14T01:44:11.608Z,10.04
2023-05-14T01:46:38.530Z,10.02
2023-05-14T01:49:05.313Z,9.89
2023-05-14T01:51:31.972Z,9.87
2023-05-14T01:53:58.754Z,10.08
2023-05-14T01:56:25.983Z,10.08
2023-05-14T01:58:53.062Z,10.07
2023-05-14T02:01:20.071Z,10.04
2023-05-14T02:03:46.834Z,10.02
2023-05-14T02:06:13.562Z,10.17
2023-05-14T02:08:40.224Z,10.24
2023-05-14T02:11:06.863Z,10.21
2023-05-14T02:13:33.748Z,10.25
2023-05-14T02:16:00.512Z,10.33
2023-05-14T02:18:27.216Z,10.32
2023-05-14T02:20:53.869Z,10.26
2023-05-14T02:23:25.683Z,10.29
2023-05-14T02:25:57.929Z,10.38
2023-05-14T02:28:24.695Z,10.52
2023-05-14T02:30:51.291Z,10.37
2023-05-14T02:33:18.115Z,10.47
2023-05-14T02:35:44.868Z,10.50
2023-05-14T02:38:12.155Z,10.50
2023-05-14T02:40:38.888Z,10.39
2023-05-14T02:43:06.249Z,10.35
2023-05-14T02:45:33.013Z,10.29
2023-05-14T02:47:59.784Z,10.33
2023-05-14T02:50:26.650Z,10.19
2023-05-14T02:52:53.357Z,10.23
2023-05-14T02:55:20.092Z,10.29
2023-05-14T02:57:46.947Z,10.38
2023-05-14T03:00:13.941Z,10.25
2023-05-14T03:02:41.099Z,10.34
2023-05-14T03:05:09.432Z,10.53
2023-05-14T03:07:36.179Z,10.42
2023-05-14T03:10:03.136Z,10.23
2023-05-14T03:12:29.895Z,10.18
2023-05-14T03:14:56.514Z,10.30
2023-05-14T03:17:23.172Z,10.31
2023-05-14T03:19:50.457Z,10.31
2023-05-14T03:22:17.248Z,10.33
2023-05-14T03:24:43.947Z,10.22
2023-05-14T03:27:10.724Z,10.24
2023-05-14T03:29:37.324Z,10.23
2023-05-14T03:32:04.440Z,10.18
2023-05-14T03:34:31.136Z,10.13
2023-05-14T03:36:57.828Z,10.14
2023-05-14T03:39:24.693Z,10.05
2023-05-14T03:41:51.473Z,10.07
2023-05-14T03:44:18.172Z,10.15
2023-05-14T03:46:44.896Z,10.02
2023-05-14T03:49:11.706Z,9.90
2023-05-14T03:51:38.366Z,9.91
2023-05-14T03:54:05.141Z,9.85
2023-05-14T03:56:31.915Z,9.77
2023-05-14T03:58:58.561Z,9.88
2023-05-14T04:01:25.212Z,9.80
2023-05-14T04:03:52.177Z,9.88
2023-05-14T04:06:19.592Z,9.88
2023-05-14T04:08:46.292Z,9.87
2023-05-14T04:11:13.003Z,9.93
2023-05-14T04:13:39.628Z,10.04
2023-05-14T04:16:06.454Z,9.99
2023-05-14T04:18:35.477Z,10.05
2023-05-14T04:21:03.166Z,10.08
2023-05-14T04:23:31.836Z,10.11
2023-05-14T04:25:59.080Z,9.92
2023-05-14T04:28:25.786Z,9.96
2023-05-14T04:30:52.668Z,9.91
2023-05-14T04:33:19.594Z,9.92
2023-05-14T04:35:46.915Z,9.67
2023-05-14T04:38:14.533Z,9.80
2023-05-14T04:40:44.347Z,9.94
2023-05-14T04:43:11.091Z,9.77
2023-05-14T04:45:37.857Z,9.85
2023-05-14T04:48:05.330Z,10.01
2023-05-14T04:50:32.251Z,10.14
2023-05-14T04:52:58.906Z,10.12
2023-05-14T04:55:25.662Z,10.06
2023-05-14T04:57:52.344Z,10.15
2023-05-14T05:00:22.109Z,10.12
2023-05-14T05:02:49.354Z,10.10
2023-05-14T05:05:16.132Z,10.22
2023-05-14T05:07:42.775Z,10.40
2023-05-14T05:10:09.789Z,10.43
2023-05-14T05:12:36.394Z,10.35
2023-05-14T05:15:03.623Z,10.23
2023-05-14T05:17:30.815Z,10.16
2023-05-14T05:19:57.570Z,10.27
2023-05-14T05:22:24.707Z,10.36
2023-05-14T05:24:51.366Z,10.51
2023-05-14T05:27:18.065Z,10.82
2023-05-14T05:29:45.031Z,10.93
2023-05-14T05:32:11.718Z,10.78
2023-05-14T05:34:38.559Z,11.09
2023-05-14T05:37:06.138Z,11.14
2023-05-14T05:39:35.289Z,11.40
2023-05-14T05:42:02.911Z,11.54
2023-05-14T05:44:29.684Z,11.90
2023-05-14T05:46:57.513Z,12.10
2023-05-14T05:49:24.306Z,12.41
2023-05-14T05:51:51.037Z,12.50
2023-05-14T05:54:17.818Z,12.53
2023-05-14T05:56:44.481Z,12.78
2023-05-14T05:59:11.149Z,13.06
2023-05-14T06:01:38.025Z,13.34
2023-05-14T06:04:06.414Z,13.58
2023-05-14T06:06:33.304Z,13.67
2023-05-14T06:09:01.938Z,13.57
2023-05-14T06:11:28.640Z,13.66
2023-05-14T06:13:55.360Z,13.79
2023-05-14T06:16:22.024Z,14.05
2023-05-14T06:18:48.850Z,14.37
2023-05-14T06:21:15.601Z,14.57
2023-05-14T06:23:42.249Z,15.00
2023-05-14T06:26:08.856Z,15.08
2023-05-14T06:28:35.507Z,15.61
2023-05-14T06:31:02.175Z,15.88
2023-05-14T06:33:31.722Z,16.24
2023-05-14T06:36:06.293Z,16.51
2023-05-14T06:38:33.392Z,16.78
2023-05-14T06:41:00.097Z,16.38
2023-05-14T06:43:26.808Z,17.07
2023-05-14T06:45:53.906Z,17.41
2023-05-14T06:48:20.832Z,17.43
2023-05-14T06:50:49.237Z,17.72
2023-05-14T06:53:16.366Z,17.76
2023-05-14T06:55:43.224Z,17.89
2023-05-14T06:58:10.041Z,17.92
2023-05-14T07:00:36.697Z,17.78
2023-05-14T07:03:03.687Z,18.45
2023-05-14T07:05:30.530Z,18.35
2023-05-14T07:07:57.284Z,18.57
2023-05-14T07:10:25.641Z,19.06
2023-05-14T07:12:52.777Z,18.74
2023-05-14T07:15:19.536Z,19.06
2023-05-14T07:17:46.394Z,18.47
2023-05-14T07:20:13.426Z,18.88
2023-05-14T07:22:40.095Z,18.68
2023-05-14T07:25:07.361Z,18.47
2023-05-14T07:27:34.136Z,18.76
2023-05-14T07:30:00.957Z,19.03
2023-05-14T07:32:27.664Z,18.43
2023-05-14T07:34:54.356Z,18.19
2023-05-14T07:37:24.097Z,18.38
2023-05-14T07:39:50.982Z,18.59
2023-05-14T07:42:28.314Z,18.25
2023-05-14T07:44:58.840Z,18.51
2023-05-14T07:47:25.652Z,18.54
2023-05-14T07:49:59.140Z,18.50
2023-05-14T07:52:25.911Z,18.67
2023-05-14T07:54:52.858Z,19.03
2023-05-14T07:57:20.739Z,19.24
2023-05-14T07:59:49.103Z,19.43
2023-05-14T08:02:17.174Z,19.02
2023-05-14T08:04:44.460Z,18.89
2023-05-14T08:07:11.281Z,19.40
2023-05-14T08:09:37.968Z,20.06
2023-05-14T08:12:05.061Z,20.16
2023-05-14T08:14:32.558Z,19.73
2023-05-14T08:16:59.488Z,20.20
2023-05-14T08:19:27.433Z,19.89
2023-05-14T08:21:54.215Z,20.20
2023-05-14T08:24:21.292Z,19.88
2023-05-14T08:26:50.272Z,20.02
2023-05-14T08:29:20.813Z,20.21
2023-05-14T08:31:49.192Z,20.41
2023-05-14T08:34:16.232Z,20.28
2023-05-14T08:36:42.974Z,20.36
2023-05-14T08:39:09.712Z,19.99
2023-05-14T08:41:37.590Z,19.82
2023-05-14T08:44:12.695Z,19.91
2023-05-14T08:46:40.486Z,19.65
2023-05-14T08:49:33.074Z,20.29
2023-05-14T08:52:00.653Z,20.25
2023-05-14T08:54:28.890Z,20.63
2023-05-14T08:56:56.494Z,20.09
2023-05-14T08:59:23.262Z,20.43
2023-05-14T09:01:53.928Z,20.60
2023-05-14T09:04:23.359Z,20.42
2023-05-14T09:06:51.824Z,20.02
2023-05-14T09:09:19.242Z,19.94
2023-05-14T09:11:47.393Z,19.67
2023-05-14T09:14:14.136Z,19.72
2023-05-14T09:16:42.813Z,19.39
2023-05-14T09:19:09.870Z,19.81
2023-05-14T09:21:37.191Z,19.66
2023-05-14T09:24:04.326Z,19.31
2023-05-14T09:26:33.205Z,19.48
2023-05-14T09:29:02.834Z,19.29
2023-05-14T09:31:32.141Z,19.25
2023-05-14T09:34:01.189Z,19.46
2023-05-14T09:36:28.423Z,19.40
2023-05-14T09:38:58.417Z,19.40
2023-05-14T09:41:25.777Z,20.13
2023-05-14T09:43:53.414Z,19.99
2023-05-14T09:46:20.757Z,19.77
2023-05-14T09:48:48.022Z,20.39
2023-05-14T09:51:14.897Z,19.54
2023-05-14T09:53:43.886Z,19.72
2023-05-14T09:56:14.357Z,19.83
2023-05-14T09:58:50.083Z,20.39
2023-05-14T10:01:22.069Z,20.29
2023-05-14T10:03:51.579Z,20.24
2023-05-14T10:06:25.665Z,20.44
2023-05-14T10:09:02.340Z,20.45
2023-05-14T10:11:34.237Z,20.22
2023-05-14T10:14:07.650Z,20.30
2023-05-14T10:16:38.711Z,20.37
2023-05-14T10:19:10.061Z,20.74
2023-05-14T10:21:38.506Z,20.79
2023-05-14T10:24:13.866Z,20.80
2023-05-14T10:26:42.703Z,20.82
2023-05-14T10:29:14.196Z,20.89
2023-05-14T10:31:51.167Z,20.57
2023-05-14T10:34:41.408Z,20.70
2023-05-14T10:37:10.115Z,20.48
2023-05-14T10:40:00.094Z,20.69
2023-05-14T10:42:30.460Z,20.71
2023-05-14T10:44:59.467Z,20.79
2023-05-14T10:47:29.433Z,20.95
2023-05-14T10:49:59.970Z,20.57
2023-05-14T10:52:36.818Z,20.58
2023-05-14T10:55:11.633Z,20.48
2023-05-14T10:57:40.848Z,20.08
2023-05-14T11:00:09.600Z,20.00
2023-05-14T11:02:39.397Z,19.65
2023-05-14T11:05:08.404Z,19.31
2023-05-14T11:07:44.836Z,19.23
2023-05-14T11:10:19.298Z,18.98
2023-05-14T11:12:49.133Z,18.73
2023-05-14T11:15:21.799Z,18.82
2023-05-14T11:17:50.576Z,18.90
2023-05-14T11:20:18.859Z,18.98
2023-05-14T11:22:47.299Z,18.57
2023-05-14T11:25:15.077Z,18.84
2023-05-14T11:27:44.176Z,18.98
2023-05-14T11:30:18.646Z,18.77
2023-05-14T11:32:52.010Z,18.83
2023-05-14T11:35:20.772Z,18.32
2023-05-14T11:37:52.879Z,18.52
2023-05-14T11:40:26.831Z,18.52
2023-05-14T11:42:58.171Z,18.49
2023-05-14T11:45:30.288Z,18.15
2023-05-14T11:47:57.582Z,18.37
2023-05-14T11:50:28.040Z,18.44
2023-05-14T11:52:58.363Z,18.28
2023-05-14T11:55:25.329Z,18.35
2023-05-14T11:57:53.532Z,18.40
2023-05-14T12:00:25.442Z,18.55
2023-05-14T12:02:56.311Z,18.34
2023-05-14T12:05:24.692Z,18.09
2023-05-14T12:07:52.581Z,18.05
2023-05-14T12:10:19.553Z,17.89
2023-05-14T12:12:48.831Z,17.76
2023-05-14T12:15:17.743Z,17.77
2023-05-14T12:17:50.949Z,17.56
2023-05-14T12:20:28.200Z,17.40
2023-05-14T12:22:58.936Z,17.54
2023-05-14T12:25:26.962Z,17.56
2023-05-14T12:27:54.187Z,17.95
2023-05-14T12:30:37.725Z,17.88
2023-05-14T12:33:04.471Z,17.15
2023-05-14T12:35:32.535Z,17.75
2023-05-14T12:37:59.171Z,17.70
2023-05-14T12:40:28.276Z,17.83
2023-05-14T12:42:58.126Z,17.44
2023-05-14T12:45:27.919Z,17.40
2023-05-14T12:47:56.034Z,17.64
2023-05-14T12:50:23.032Z,17.60
2023-05-14T12:52:49.862Z,17.39
2023-05-14T12:55:18.201Z,17.24
2023-05-14T12:57:46.521Z,17.48
2023-05-14T13:00:17.754Z,17.62
2023-05-14T13:02:45.336Z,17.29
2023-05-14T13:05:12.941Z,17.36
2023-05-14T13:07:40.852Z,17.31
2023-05-14T13:10:09.353Z,17.45
2023-05-14T13:12:43.235Z,17.26
2023-05-14T13:15:11.601Z,17.29
2023-05-14T13:17:41.131Z,17.32
2023-05-14T13:20:09.490Z,17.12
2023-05-14T13:22:37.562Z,17.29
2023-05-14T13:25:06.724Z,17.61
2023-05-14T13:27:36.503Z,17.54
2023-05-14T13:30:05.209Z,17.45
2023-05-14T13:32:32.692Z,17.58
2023-05-14T13:35:00.269Z,17.59
2023-05-14T13:37:28.884Z,17.10
2023-05-14T13:39:57.170Z,17.23
2023-05-14T13:42:36.591Z,17.08
2023-05-14T13:45:04.181Z,16.96
2023-05-14T13:47:31.705Z,16.91
2023-05-14T13:49:58.628Z,17.09
2023-05-14T13:52:25.789Z,17.21
2023-05-14T13:54:53.237Z,17.33
2023-05-14T13:57:20.220Z,17.35
2023-05-14T13:59:48.000Z,17.12
2023-05-14T14:02:15.985Z,17.29
2023-05-14T14:04:44.159Z,17.29
2023-05-14T14:07:11.436Z,17.19
2023-05-14T14:09:38.436Z,17.43
2023-05-14T14:12:06.258Z,17.43
2023-05-14T14:14:33.523Z,16.54
2023-05-14T14:17:01.101Z,15.64
2023-05-14T14:19:28.463Z,14.93
2023-05-14T14:21:56.662Z,14.59
2023-05-14T14:24:24.952Z,14.12
2023-05-14T14:26:52.301Z,13.95
2023-05-14T14:29:18.966Z,13.55
2023-05-14T14:31:46.259Z,13.50
2023-05-14T14:34:14.362Z,13.52
2023-05-14T14:36:41.638Z,13.42
2023-05-14T14:39:08.719Z,13.23
2023-05-14T14:41:40.299Z,13.32
2023-05-14T14:44:07.212Z,13.23
2023-05-14T14:46:34.365Z,13.19
2023-05-14T14:49:02.142Z,12.94
2023-05-14T14:51:30.414Z,13.35
2023-05-14T14:53:57.520Z,13.25
2023-05-14T14:56:28.261Z,13.27
2023-05-14T14:58:56.386Z,13.25
2023-05-14T15:01:23.756Z,13.33
2023-05-14T15:03:50.925Z,13.17
2023-05-14T15:06:17.953Z,13.26
2023-05-14T15:08:44.695Z,13.15
2023-05-14T15:11:11.533Z,13.11
2023-05-14T15:13:40.516Z,13.32
2023-05-14T15:16:08.092Z,13.07
2023-05-14T15:18:35.348Z,13.54
2023-05-14T15:21:02.194Z,13.48
2023-05-14T15:23:29.594Z,13.62
2023-05-14T15:25:56.996Z,13.57
2023-05-14T15:28:26.089Z,13.82
2023-05-14T15:30:53.015Z,13.96
2023-05-14T15:33:19.958Z,14.08
2023-05-14T15:35:47.157Z,14.12
2023-05-14T15:38:13.909Z,14.18
2023-05-14T15:40:41.132Z,13.92
2023-05-14T15:43:08.012Z,13.78
2023-05-14T15:45:35.033Z,13.70
2023-05-14T15:48:02.796Z,13.57
2023-05-14T15:50:30.281Z,13.68
2023-05-14T15:52:57.567Z,13.59
2023-05-14T15:55:25.013Z,13.76
2023-05-14T15:57:53.312Z,13.61
2023-05-14T16:00:21.357Z,13.92
2023-05-14T16:02:48.888Z,13.99
2023-05-14T16:05:15.749Z,13.91
2023-05-14T16:07:43.009Z,13.90
2023-05-14T16:10:09.872Z,14.03
2023-05-14T16:12:36.657Z,13.69
2023-05-14T16:15:03.779Z,14.09
2023-05-14T16:17:32.854Z,14.24
2023-05-14T16:20:00.920Z,14.15
2023-05-14T16:22:29.312Z,14.04
2023-05-14T16:24:56.126Z,14.01
2023-05-14T16:27:22.793Z,14.22
2023-05-14T16:29:49.567Z,14.43
2023-05-14T16:32:16.483Z,14.33
2023-05-14T16:34:49.683Z,14.24
2023-05-14T16:37:17.001Z,14.55
2023-05-14T16:39:43.789Z,14.28
2023-05-14T16:42:10.806Z,14.44
2023-05-14T16:44:37.547Z,14.52
2023-05-14T16:47:04.792Z,14.52
2023-05-14T16:49:31.675Z,14.40
2023-05-14T16:51:58.336Z,14.54
2023-05-14T16:54:25.104Z,14.48
2023-05-14T16:56:52.072Z,14.46
2023-05-14T16:59:18.910Z,14.37
2023-05-14T17:01:46.541Z,14.42
2023-05-14T17:04:13.238Z,14.39
2023-05-14T17:06:39.925Z,14.39
2023-05-14T17:09:07.024Z,14.12
2023-05-14T17:11:33.898Z,14.13
2023-05-14T17:14:00.889Z,14.09
2023-05-14T17:16:30.103Z,14.17
2023-05-14T17:18:57.392Z,13.93
2023-05-14T17:21:24.191Z,13.99
2023-05-14T17:23:50.917Z,13.82
2023-05-14T17:26:17.788Z,13.71
2023-05-14T17:28:44.446Z,13.74
2023-05-14T17:31:11.181Z,13.82
2023-05-14T17:33:37.974Z,13.55
2023-05-14T17:36:04.879Z,13.39
2023-05-14T17:38:31.746Z,13.39
2023-05-14T17:40:59.620Z,13.37
2023-05-14T17:43:26.289Z,13.20
2023-05-14T17:45:54.717Z,13.08
2023-05-14T17:48:22.939Z,13.14
2023-05-14T17:50:51.313Z,12.87
2023-05-14T17:53:18.205Z,12.87
2023-05-14T17:55:44.970Z,12.71
2023-05-14T17:58:13.534Z,12.71
2023-05-14T18:00:40.796Z,12.70
2023-05-14T18:03:08.027Z,12.61
2023-05-14T18:05:34.859Z,12.45
2023-05-14T18:08:01.547Z,12.48
2023-05-14T18:10:29.684Z,12.50
2023-05-14T18:12:56.772Z,12.54
2023-05-14T18:15:25.814Z,12.54
2023-05-14T18:17:53.255Z,12.61
2023-05-14T18:20:20.306Z,12.57
2023-05-14T18:22:47.127Z,12.53
2023-05-14T18:25:14.637Z,12.44
2023-05-14T18:27:47.448Z,12.45
2023-05-14T18:30:15.486Z,12.65
2023-05-14T18:32:44.340Z,12.57
2023-05-14T18:35:12.359Z,12.59
2023-05-14T18:37:39.727Z,12.59
2023-05-14T18:40:07.137Z,12.56
2023-05-14T18:42:34.419Z,12.72
2023-05-14T18:45:01.842Z,12.56
2023-05-14T18:47:28.801Z,12.43
2023-05-14T18:49:58.128Z,12.38
2023-05-14T18:52:26.349Z,12.36
2023-05-14T18:54:53.884Z,12.26
2023-05-14T18:57:21.583Z,12.23
2023-05-14T18:59:48.609Z,12.33
2023-05-14T19:02:17.020Z,12.56
2023-05-14T19:04:52.287Z,12.46
2023-05-14T19:07:23.660Z,12.56
2023-05-14T19:09:51.710Z,12.77
2023-05-14T19:12:21.536Z,12.63
2023-05-14T19:14:49.250Z,12.52
2023-05-14T19:17:20.509Z,12.65
2023-05-14T19:19:48.473Z,12.54
2023-05-14T19:22:16.006Z,12.61
2023-05-14T19:24:43.571Z,12.61
2023-05-14T19:27:19.572Z,12.54
2023-05-14T19:29:50.308Z,12.29
2023-05-14T19:32:18.041Z,12.24
2023-05-14T19:34:46.171Z,12.38
2023-05-14T19:37:14.897Z,12.44
2023-05-14T19:39:42.593Z,12.17
2023-05-14T19:42:11.816Z,12.24
2023-05-14T19:44:40.021Z,12.19
2023-05-14T19:47:08.488Z,12.27
2023-05-14T19:49:36.727Z,12.18
2023-05-14T19:52:04.957Z,12.09
2023-05-14T19:54:33.087Z,12.25
2023-05-14T19:57:01.540Z,12.27
2023-05-14T19:59:30.677Z,12.20
2023-05-14T20:01:58.545Z,12.24
2023-05-14T20:04:26.667Z,12.06
2023-05-14T20:06:53.702Z,12.12
2023-05-14T20:09:20.692Z,12.10
2023-05-14T20:11:47.624Z,11.93
2023-05-14T20:14:14.530Z,11.85
2023-05-14T20:16:41.785Z,11.99
2023-05-14T20:19:08.750Z,11.88
2023-05-14T20:21:35.733Z,11.76
2023-05-14T20:24:03.550Z,11.86
2023-05-14T20:26:30.386Z,11.96
2023-05-14T20:28:57.050Z,11.82
2023-05-14T20:31:23.805Z,11.87
2023-05-14T20:33:52.694Z,11.78
2023-05-14T20:36:19.926Z,11.74
2023-05-14T20:38:47.804Z,11.80
2023-05-14T20:41:15.160Z,11.82
2023-05-14T20:43:41.837Z,11.75
2023-05-14T20:46:10.327Z,11.77
2023-05-14T20:48:37.028Z,11.77
2023-05-14T20:51:09.176Z,11.75
2023-05-14T20:53:39.177Z,11.87
2023-05-14T20:56:06.718Z,11.89
2023-05-14T20:58:34.232Z,11.78
2023-05-14T21:01:01.852Z,11.89
2023-05-14T21:03:28.746Z,12.01
2023-05-14T21:05:57.805Z,11.97
2023-05-14T21:08:24.604Z,11.95
2023-05-14T21:10:51.370Z,11.96
2023-05-14T21:13:18.113Z,11.89
2023-05-14T21:15:44.807Z,11.87
2023-05-14T21:18:12.095Z,11.90
2023-05-14T21:20:39.019Z,11.89
2023-05-14T21:23:05.683Z,11.91
2023-05-14T21:25:32.476Z,11.92
2023-05-14T21:27:59.076Z,12.01
2023-05-14T21:30:25.802Z,12.01
2023-05-14T21:32:52.675Z,11.94
2023-05-14T21:35:19.415Z,11.81
2023-05-14T21:37:46.146Z,11.81
2023-05-14T21:40:12.961Z,11.88
2023-05-14T21:42:40.802Z,11.79
2023-05-14T21:45:07.865Z,11.78
2023-05-14T21:47:34.732Z,11.85
2023-05-14T21:50:01.606Z,12.02
2023-05-14T21:52:28.365Z,11.93
2023-05-14T21:54:55.880Z,11.96
2023-05-14T21:57:22.913Z,11.88
2023-05-14T21:59:49.590Z,11.77
2023-05-14T22:02:16.340Z,11.87
2023-05-14T22:04:43.191Z,11.86
2023-05-14T22:07:09.960Z,11.74
2023-05-14T22:09:36.624Z,11.58
2023-05-14T22:12:03.392Z,11.65
2023-05-14T22:14:30.288Z,11.71
2023-05-14T22:16:57.036Z,11.84
2023-05-14T22:19:23.768Z,11.95
2023-05-14T22:21:50.884Z,11.93
2023-05-14T22:24:17.571Z,11.78
2023-05-14T22:26:44.496Z,11.74
2023-05-14T22:29:11.244Z,11.81
2023-05-14T22:31:40.411Z,11.91
2023-05-14T22:34:07.127Z,11.77
2023-05-14T22:36:34.022Z,11.84
2023-05-14T22:39:01.050Z,11.78
2023-05-14T22:41:27.815Z,11.76
2023-05-14T22:43:54.456Z,11.68
2023-05-14T22:46:21.420Z,11.70
2023-05-14T22:48:49.377Z,11.70
2023-05-14T22:51:16.482Z,11.73
2023-05-14T22:53:43.206Z,11.82
2023-05-14T22:56:09.916Z,11.80
2023-05-14T22:58:36.552Z,11.69
2023-05-14T23:01:03.549Z,11.77
2023-05-14T23:03:30.343Z,11.80
2023-05-14T23:05:57.040Z,11.74
2023-05-14T23:08:23.703Z,11.74
2023-05-14T23:10:50.621Z,11.77
2023-05-14T23:13:17.340Z,11.68
2023-05-14T23:15:44.228Z,11.65
2023-05-14T23:18:11.033Z,11.56
2023-05-14T23:20:37.753Z,11.51
2023-05-14T23:23:05.289Z,11.50
2023-05-14T23:25:32.440Z,11.50
2023-05-14T23:27:59.258Z,11.39
2023-05-14T23:30:26.070Z,11.26
2023-05-14T23:32:53.212Z,11.38
2023-05-14T23:35:19.957Z,11.39
2023-05-14T23:37:49.555Z,11.41
2023-05-14T23:40:16.407Z,11.37
2023-05-14T23:42:44.351Z,11.27
2023-05-14T23:45:12.337Z,11.06
2023-05-14T23:47:39.366Z,11.01
2023-05-14T23:50:06.624Z,11.06
2023-05-14T23:52:33.804Z,10.99
2023-05-14T23:55:00.703Z,10.85
2023-05-14T23:57:27.579Z,10.75
2023-05-14T23:59:54.356Z,10.85
